sensor_id;sensor_type;location;lat;lon;timestamp;pressure;altitude;pressure_sealevel;temperature;humidity
64758;BME280;51193;45.588;5.376;2022-08-20T00:01:45;96561.13;;;19.79;66.17
64758;BME280;51193;45.588;5.376;2022-08-20T00:04:13;96571.72;;;19.79;66.48
64758;BME280;51193;45.588;5.376;2022-08-20T00:06:39;96557.50;;;19.80;66.13
64758;BME280;51193;45.588;5.376;2022-08-20T00:09:05;96555.69;;;19.81;65.73
64758;BME280;51193;45.588;5.376;2022-08-20T00:11:31;96544.13;;;19.82;66.15
64758;BME280;51193;45.588;5.376;2022-08-20T00:14:01;96544.22;;;19.80;66.03
64758;BME280;51193;45.588;5.376;2022-08-20T00:16:30;96554.84;;;19.80;66.17
64758;BME280;51193;45.588;5.376;2022-08-20T00:18:58;96549.53;;;19.80;66.04
64758;BME280;51193;45.588;5.376;2022-08-20T00:21:24;96546.88;;;19.80;66.13
64758;BME280;51193;45.588;5.376;2022-08-20T00:23:52;96547.84;;;19.79;66.30
64758;BME280;51193;45.588;5.376;2022-08-20T00:26:18;96542.53;;;19.79;65.93
64758;BME280;51193;45.588;5.376;2022-08-20T00:28:44;96543.38;;;19.80;66.07
64758;BME280;51193;45.588;5.376;2022-08-20T00:31:12;96546.03;;;19.80;65.85
64758;BME280;51193;45.588;5.376;2022-08-20T00:33:38;96546.03;;;19.80;65.60
64758;BME280;51193;45.588;5.376;2022-08-20T00:36:05;96550.38;;;19.81;65.42
64758;BME280;51193;45.588;5.376;2022-08-20T00:38:35;96546.03;;;19.80;65.43
64758;BME280;51193;45.588;5.376;2022-08-20T00:41:02;96544.31;;;19.79;65.43
64758;BME280;51193;45.588;5.376;2022-08-20T00:43:36;96538.16;;;19.78;65.73
64758;BME280;51193;45.588;5.376;2022-08-20T00:46:09;96538.16;;;19.78;65.62
64758;BME280;51193;45.588;5.376;2022-08-20T00:48:38;96536.47;;;19.77;65.74
64758;BME280;51193;45.588;5.376;2022-08-20T00:51:20;96532.09;;;19.76;65.56
64758;BME280;51193;45.588;5.376;2022-08-20T00:53:49;96545.28;;;19.78;65.70
64758;BME280;51193;45.588;5.376;2022-08-20T00:56:15;96540.81;;;19.78;65.92
64758;BME280;51193;45.588;5.376;2022-08-20T00:58:42;96539.88;;;19.79;65.61
64758;BME280;51193;45.588;5.376;2022-08-20T01:01:09;96536.25;;;19.80;65.81
64758;BME280;51193;45.588;5.376;2022-08-20T01:03:35;96535.22;;;19.83;65.72
64758;BME280;51193;45.588;5.376;2022-08-20T01:06:00;96537.78;;;19.84;65.57
64758;BME280;51193;45.588;5.376;2022-08-20T01:08:26;96528.00;;;19.85;65.29
64758;BME280;51193;45.588;5.376;2022-08-20T01:10:53;96526.22;;;19.85;65.33
64758;BME280;51193;45.588;5.376;2022-08-20T01:13:33;96539.38;;;19.87;65.66
64758;BME280;51193;45.588;5.376;2022-08-20T01:16:01;96536.72;;;19.87;65.57
64758;BME280;51193;45.588;5.376;2022-08-20T01:18:29;96536.84;;;19.85;65.82
64758;BME280;51193;45.588;5.376;2022-08-20T01:20:58;96537.69;;;19.86;66.17
64758;BME280;51193;45.588;5.376;2022-08-20T01:26:22;96530.66;;;19.85;66.31
64758;BME280;51193;45.588;5.376;2022-08-20T01:28:53;96533.31;;;19.85;66.52
64758;BME280;51193;45.588;5.376;2022-08-20T01:31:24;96528.00;;;19.85;66.47
64758;BME280;51193;45.588;5.376;2022-08-20T01:33:52;96526.31;;;19.84;66.38
64758;BME280;51193;45.588;5.376;2022-08-20T01:36:24;96531.53;;;19.85;66.40
64758;BME280;51193;45.588;5.376;2022-08-20T01:38:49;96528.00;;;19.85;66.86
64758;BME280;51193;45.588;5.376;2022-08-20T01:43:57;96529.91;;;19.83;66.26
64758;BME280;51193;45.588;5.376;2022-08-20T01:46:26;96529.81;;;19.84;66.36
64758;BME280;51193;45.588;5.376;2022-08-20T01:48:53;96533.44;;;19.83;66.65
64758;BME280;51193;45.588;5.376;2022-08-20T01:51:23;96531.63;;;19.84;66.12
64758;BME280;51193;45.588;5.376;2022-08-20T01:53:52;96533.44;;;19.83;66.27
64758;BME280;51193;45.588;5.376;2022-08-20T01:56:22;96529.91;;;19.83;66.05
64758;BME280;51193;45.588;5.376;2022-08-20T01:58:50;96528.13;;;19.83;66.60
64758;BME280;51193;45.588;5.376;2022-08-20T02:01:35;96519.19;;;19.84;66.43
64758;BME280;51193;45.588;5.376;2022-08-20T02:04:01;96523.22;;;19.77;66.49
64758;BME280;51193;45.588;5.376;2022-08-20T02:06:28;96516.63;;;19.83;66.42
64758;BME280;51193;45.588;5.376;2022-08-20T02:08:57;96518.53;;;19.81;66.02
64758;BME280;51193;45.588;5.376;2022-08-20T02:11:23;96522.91;;;19.82;66.18
64758;BME280;51193;45.588;5.376;2022-08-20T02:13:50;96516.00;;;19.79;66.34
64758;BME280;51193;45.588;5.376;2022-08-20T02:16:17;96522.16;;;19.80;66.28
64758;BME280;51193;45.588;5.376;2022-08-20T02:18:42;96516.84;;;19.80;66.53
64758;BME280;51193;45.588;5.376;2022-08-20T02:21:08;96518.75;;;19.78;66.37
64758;BME280;51193;45.588;5.376;2022-08-20T02:23:33;96512.59;;;19.77;66.62
64758;BME280;51193;45.588;5.376;2022-08-20T02:25:59;96510.97;;;19.75;66.66
64758;BME280;51193;45.588;5.376;2022-08-20T02:28:24;96507.47;;;19.74;66.52
64758;BME280;51193;45.588;5.376;2022-08-20T02:30:51;96502.25;;;19.73;66.80
64758;BME280;51193;45.588;5.376;2022-08-20T02:33:19;96505.88;;;19.72;66.97
64758;BME280;51193;45.588;5.376;2022-08-20T02:35:47;96510.34;;;19.71;66.50
64758;BME280;51193;45.588;5.376;2022-08-20T02:38:13;96515.66;;;19.71;66.76
64758;BME280;51193;45.588;5.376;2022-08-20T02:40:40;96514.88;;;19.69;66.86
64758;BME280;51193;45.588;5.376;2022-08-20T02:43:08;96502.63;;;19.66;66.85
64758;BME280;51193;45.588;5.376;2022-08-20T02:45:33;96503.59;;;19.65;66.98
64758;BME280;51193;45.588;5.376;2022-08-20T02:48:03;96507.19;;;19.64;67.32
64758;BME280;51193;45.588;5.376;2022-08-20T02:50:29;96506.25;;;19.65;66.97
64758;BME280;51193;45.588;5.376;2022-08-20T02:52:55;96496.47;;;19.66;66.97
64758;BME280;51193;45.588;5.376;2022-08-20T02:55:21;96493.81;;;19.66;66.95
64758;BME280;51193;45.588;5.376;2022-08-20T02:57:47;96500.72;;;19.68;66.92
64758;BME280;51193;45.588;5.376;2022-08-20T03:00:16;96492.78;;;19.68;67.06
64758;BME280;51193;45.588;5.376;2022-08-20T03:02:43;96495.41;;;19.68;67.20
64758;BME280;51193;45.588;5.376;2022-08-20T03:05:08;96493.81;;;19.66;67.08
64758;BME280;51193;45.588;5.376;2022-08-20T03:07:42;96487.88;;;19.62;67.50
64758;BME280;51193;45.588;5.376;2022-08-20T03:10:08;96490.50;;;19.62;67.51
64758;BME280;51193;45.588;5.376;2022-08-20T03:12:34;96490.50;;;19.62;67.56
64758;BME280;51193;45.588;5.376;2022-08-20T03:15:00;96498.47;;;19.62;67.39
64758;BME280;51193;45.588;5.376;2022-08-20T03:17:25;96500.38;;;19.60;67.44
64758;BME280;51193;45.588;5.376;2022-08-20T03:19:51;96493.28;;;19.61;67.60
64758;BME280;51193;45.588;5.376;2022-08-20T03:22:17;96493.38;;;19.59;67.28
64758;BME280;51193;45.588;5.376;2022-08-20T03:24:42;96495.19;;;19.59;67.57
64758;BME280;51193;45.588;5.376;2022-08-20T03:27:08;96492.63;;;19.57;67.70
64758;BME280;51193;45.588;5.376;2022-08-20T03:29:33;96491.66;;;19.58;67.69
64758;BME280;51193;45.588;5.376;2022-08-20T03:31:59;96487.31;;;19.57;67.60
64758;BME280;51193;45.588;5.376;2022-08-20T03:34:25;96490.91;;;19.56;67.67
64758;BME280;51193;45.588;5.376;2022-08-20T03:36:50;96498.88;;;19.56;67.80
64758;BME280;51193;45.588;5.376;2022-08-20T03:39:15;96489.22;;;19.55;67.78
64758;BME280;51193;45.588;5.376;2022-08-20T03:41:41;96492.72;;;19.56;67.93
64758;BME280;51193;45.588;5.376;2022-08-20T03:44:06;96492.81;;;19.54;68.11
64758;BME280;51193;45.588;5.376;2022-08-20T03:46:33;96496.53;;;19.52;67.99
64758;BME280;51193;45.588;5.376;2022-08-20T03:48:59;96501.81;;;19.52;68.05
64758;BME280;51193;45.588;5.376;2022-08-20T03:51:24;96501.81;;;19.52;68.15
64758;BME280;51193;45.588;5.376;2022-08-20T03:53:49;96502.03;;;19.48;68.23
64758;BME280;51193;45.588;5.376;2022-08-20T03:56:15;96488.97;;;19.45;68.07
64758;BME280;51193;45.588;5.376;2022-08-20T03:58:41;96501.38;;;19.45;68.32
64758;BME280;51193;45.588;5.376;2022-08-20T04:01:07;96495.41;;;19.41;68.74
64758;BME280;51193;45.588;5.376;2022-08-20T04:03:33;96492.84;;;19.40;68.49
64758;BME280;51193;45.588;5.376;2022-08-20T04:05:59;96482.44;;;19.37;68.80
64758;BME280;51193;45.588;5.376;2022-08-20T04:08:26;96487.75;;;19.37;69.20
64758;BME280;51193;45.588;5.376;2022-08-20T04:10:54;96493.06;;;19.37;69.00
64758;BME280;51193;45.588;5.376;2022-08-20T04:13:23;96488.59;;;19.37;68.92
64758;BME280;51193;45.588;5.376;2022-08-20T04:15:49;96497.41;;;19.38;69.16
64758;BME280;51193;45.588;5.376;2022-08-20T04:18:15;96503.44;;;19.40;69.22
64758;BME280;51193;45.588;5.376;2022-08-20T04:20:49;96494.56;;;19.41;69.01
64758;BME280;51193;45.588;5.376;2022-08-20T04:23:15;96498.16;;;19.40;68.92
64758;BME280;51193;45.588;5.376;2022-08-20T04:25:41;96499.88;;;19.41;69.21
64758;BME280;51193;45.588;5.376;2022-08-20T04:28:13;96506.84;;;19.42;69.49
64758;BME280;51193;45.588;5.376;2022-08-20T04:30:39;96506.97;;;19.40;69.28
64758;BME280;51193;45.588;5.376;2022-08-20T04:33:06;96507.16;;;19.37;69.24
64758;BME280;51193;45.588;5.376;2022-08-20T04:35:32;96511.78;;;19.34;69.49
64758;BME280;51193;45.588;5.376;2022-08-20T04:38:06;96517.22;;;19.32;69.86
64758;BME280;51193;45.588;5.376;2022-08-20T04:40:33;96518.25;;;19.29;69.83
64758;BME280;51193;45.588;5.376;2022-08-20T04:43:18;96527.81;;;19.32;69.92
64758;BME280;51193;45.588;5.376;2022-08-20T04:45:45;96525.94;;;19.34;69.79
64758;BME280;51193;45.588;5.376;2022-08-20T04:48:11;96526.94;;;19.32;69.84
64758;BME280;51193;45.588;5.376;2022-08-20T04:50:38;96534.16;;;19.29;69.91
64758;BME280;51193;45.588;5.376;2022-08-20T04:53:07;96526.94;;;19.32;70.13
64758;BME280;51193;45.588;5.376;2022-08-20T04:55:34;96533.88;;;19.34;70.21
64758;BME280;51193;45.588;5.376;2022-08-20T04:58:07;96540.97;;;19.34;69.92
64758;BME280;51193;45.588;5.376;2022-08-20T05:00:33;96536.63;;;19.33;70.10
64758;BME280;51193;45.588;5.376;2022-08-20T05:02:59;96537.47;;;19.33;69.92
64758;BME280;51193;45.588;5.376;2022-08-20T05:05:24;96539.28;;;19.33;70.46
64758;BME280;51193;45.588;5.376;2022-08-20T05:07:52;96542.84;;;19.32;70.44
64758;BME280;51193;45.588;5.376;2022-08-20T05:10:18;96544.56;;;19.33;70.15
64758;BME280;51193;45.588;5.376;2022-08-20T05:12:45;96549.78;;;19.34;70.51
64758;BME280;51193;45.588;5.376;2022-08-20T05:15:11;96554.97;;;19.36;70.28
64758;BME280;51193;45.588;5.376;2022-08-20T05:17:41;96556.78;;;19.35;70.15
64758;BME280;51193;45.588;5.376;2022-08-20T05:20:10;96555.84;;;19.36;70.39
64758;BME280;51193;45.588;5.376;2022-08-20T05:22:36;96554.97;;;19.36;70.60
64758;BME280;51193;45.588;5.376;2022-08-20T05:25:02;96562.84;;;19.37;70.23
64758;BME280;51193;45.588;5.376;2022-08-20T05:27:29;96569.94;;;19.37;70.57
64758;BME280;51193;45.588;5.376;2022-08-20T05:30:10;96571.84;;;19.35;70.55
64758;BME280;51193;45.588;5.376;2022-08-20T05:32:37;96579.03;;;19.33;70.22
64758;BME280;51193;45.588;5.376;2022-08-20T05:35:05;96569.28;;;19.33;70.55
64758;BME280;51193;45.588;5.376;2022-08-20T05:37:33;96574.50;;;19.35;70.55
64758;BME280;51193;45.588;5.376;2022-08-20T05:39:59;96584.13;;;19.36;70.49
64758;BME280;51193;45.588;5.376;2022-08-20T05:42:24;96575.25;;;19.37;70.71
64758;BME280;51193;45.588;5.376;2022-08-20T05:44:53;96580.56;;;19.37;70.44
64758;BME280;51193;45.588;5.376;2022-08-20T05:47:18;96582.63;;;19.32;70.76
64758;BME280;51193;45.588;5.376;2022-08-20T05:49:44;96571.25;;;19.29;70.77
64758;BME280;51193;45.588;5.376;2022-08-20T05:52:10;96572.78;;;19.34;70.45
64758;BME280;51193;45.588;5.376;2022-08-20T05:54:36;96574.28;;;19.38;70.27
64758;BME280;51193;45.588;5.376;2022-08-20T05:57:02;96575.16;;;19.38;70.63
64758;BME280;51193;45.588;5.376;2022-08-20T05:59:28;96585.00;;;19.36;70.63
64758;BME280;51193;45.588;5.376;2022-08-20T06:01:53;96584.25;;;19.34;70.60
64758;BME280;51193;45.588;5.376;2022-08-20T06:04:19;96592.31;;;19.33;70.78
64758;BME280;51193;45.588;5.376;2022-08-20T06:07:05;96593.97;;;19.34;70.91
64758;BME280;51193;45.588;5.376;2022-08-20T06:09:31;96595.50;;;19.38;70.88
64758;BME280;51193;45.588;5.376;2022-08-20T06:11:58;96593.59;;;19.40;70.68
64758;BME280;51193;45.588;5.376;2022-08-20T06:14:24;96594.38;;;19.42;70.84
64758;BME280;51193;45.588;5.376;2022-08-20T06:16:49;96587.38;;;19.41;70.70
64758;BME280;51193;45.588;5.376;2022-08-20T06:19:15;96584.50;;;19.44;70.67
64758;BME280;51193;45.588;5.376;2022-08-20T06:21:40;96589.63;;;19.47;70.59
64758;BME280;51193;45.588;5.376;2022-08-20T06:24:06;96598.34;;;19.49;70.83
64758;BME280;51193;45.588;5.376;2022-08-20T06:26:32;96598.53;;;19.46;70.74
64758;BME280;51193;45.588;5.376;2022-08-20T06:29:02;96592.69;;;19.41;70.82
64758;BME280;51193;45.588;5.376;2022-08-20T06:31:28;96603.94;;;19.44;70.76
64758;BME280;51193;45.588;5.376;2022-08-20T06:33:54;96599.41;;;19.46;70.64
64758;BME280;51193;45.588;5.376;2022-08-20T06:36:20;96594.84;;;19.48;70.75
64758;BME280;51193;45.588;5.376;2022-08-20T06:38:46;96606.97;;;19.53;70.73
64758;BME280;51193;45.588;5.376;2022-08-20T06:41:12;96612.38;;;19.51;70.40
64758;BME280;51193;45.588;5.376;2022-08-20T06:43:38;96597.59;;;19.47;70.79
64758;BME280;51193;45.588;5.376;2022-08-20T06:46:03;96601.75;;;19.51;70.94
64758;BME280;51193;45.588;5.376;2022-08-20T06:48:29;96602.31;;;19.56;70.50
64758;BME280;51193;45.588;5.376;2022-08-20T06:50:55;96604.13;;;19.56;70.47
64758;BME280;51193;45.588;5.376;2022-08-20T06:53:20;96598.53;;;19.46;70.30
64758;BME280;51193;45.588;5.376;2022-08-20T06:55:50;96600.41;;;19.44;70.25
64758;BME280;51193;45.588;5.376;2022-08-20T06:58:17;96605.34;;;19.36;70.66
64758;BME280;51193;45.588;5.376;2022-08-20T07:00:43;96601.84;;;19.35;70.85
64758;BME280;51193;45.588;5.376;2022-08-20T07:03:09;96600.63;;;19.41;70.86
64758;BME280;51193;45.588;5.376;2022-08-20T07:05:42;96600.41;;;19.44;70.32
64758;BME280;51193;45.588;5.376;2022-08-20T07:08:09;96602.16;;;19.45;70.29
64758;BME280;51193;45.588;5.376;2022-08-20T07:10:36;96601.94;;;19.48;70.05
64758;BME280;51193;45.588;5.376;2022-08-20T07:13:02;96605.56;;;19.47;70.08
64758;BME280;51193;45.588;5.376;2022-08-20T07:15:28;96604.13;;;19.41;70.05
64758;BME280;51193;45.588;5.376;2022-08-20T07:17:58;96602.53;;;19.39;70.04
64758;BME280;51193;45.588;5.376;2022-08-20T07:20:24;96600.53;;;19.42;70.19
64758;BME280;51193;45.588;5.376;2022-08-20T07:22:50;96604.03;;;19.43;70.33
64758;BME280;51193;45.588;5.376;2022-08-20T07:25:18;96598.72;;;19.43;70.25
64758;BME280;51193;45.588;5.376;2022-08-20T07:27:45;96600.25;;;19.47;70.06
64758;BME280;51193;45.588;5.376;2022-08-20T07:30:16;96600.41;;;19.44;70.32
64758;BME280;51193;45.588;5.376;2022-08-20T07:33:01;96606.22;;;19.50;69.75
64758;BME280;51193;45.588;5.376;2022-08-20T07:35:27;96606.84;;;19.54;70.05
64758;BME280;51193;45.588;5.376;2022-08-20T07:37:53;96611.78;;;19.60;69.67
64758;BME280;51193;45.588;5.376;2022-08-20T07:40:27;96612.84;;;19.58;69.52
64758;BME280;51193;45.588;5.376;2022-08-20T07:42:54;96613.78;;;19.57;69.86
64758;BME280;51193;45.588;5.376;2022-08-20T07:45:19;96618.81;;;19.61;69.56
64758;BME280;51193;45.588;5.376;2022-08-20T07:47:47;96613.28;;;19.64;69.80
64758;BME280;51193;45.588;5.376;2022-08-20T07:50:16;96612.34;;;19.65;69.45
64758;BME280;51193;45.588;5.376;2022-08-20T07:52:44;96614.16;;;19.65;69.54
64758;BME280;51193;45.588;5.376;2022-08-20T07:55:11;96613.88;;;19.69;69.10
64758;BME280;51193;45.588;5.376;2022-08-20T07:57:38;96618.06;;;19.74;69.45
64758;BME280;51193;45.588;5.376;2022-08-20T08:00:08;96616.44;;;19.85;69.40
64758;BME280;51193;45.588;5.376;2022-08-20T08:02:34;96624.38;;;20.00;68.68
64758;BME280;51193;45.588;5.376;2022-08-20T08:05:02;96621.97;;;20.09;68.77
64758;BME280;51193;45.588;5.376;2022-08-20T08:07:27;96629.44;;;20.17;68.75
64758;BME280;51193;45.588;5.376;2022-08-20T08:09:54;96616.72;;;20.22;68.17
64758;BME280;51193;45.588;5.376;2022-08-20T08:12:21;96621.91;;;20.24;67.73
64758;BME280;51193;45.588;5.376;2022-08-20T08:14:48;96620.06;;;20.12;67.79
64758;BME280;51193;45.588;5.376;2022-08-20T08:17:15;96627.19;;;20.11;67.97
64758;BME280;51193;45.588;5.376;2022-08-20T08:19:46;96630.66;;;20.12;67.56
64758;BME280;51193;45.588;5.376;2022-08-20T08:22:15;96632.41;;;20.13;67.72
64758;BME280;51193;45.588;5.376;2022-08-20T08:24:42;96629.25;;;20.20;67.52
64758;BME280;51193;45.588;5.376;2022-08-20T08:27:09;96623.22;;;20.31;67.46
64758;BME280;51193;45.588;5.376;2022-08-20T08:29:35;96620.63;;;20.44;67.40
64758;BME280;51193;45.588;5.376;2022-08-20T08:32:02;96631.41;;;20.55;67.24
64758;BME280;51193;45.588;5.376;2022-08-20T08:34:30;96624.56;;;20.65;66.39
64758;BME280;51193;45.588;5.376;2022-08-20T08:36:55;96625.31;;;20.67;66.11
64758;BME280;51193;45.588;5.376;2022-08-20T08:39:23;96636.16;;;20.77;66.08
64758;BME280;51193;45.588;5.376;2022-08-20T08:41:50;96623.16;;;20.73;65.92
64758;BME280;51193;45.588;5.376;2022-08-20T08:44:23;96621.59;;;20.83;65.69
64758;BME280;51193;45.588;5.376;2022-08-20T08:47:01;96622.16;;;21.01;65.23
64758;BME280;51193;45.588;5.376;2022-08-20T08:49:32;96621.66;;;21.21;64.76
64758;BME280;51193;45.588;5.376;2022-08-20T08:52:02;96617.50;;;21.30;64.42
64758;BME280;51193;45.588;5.376;2022-08-20T08:54:32;96620.88;;;21.32;64.40
64758;BME280;51193;45.588;5.376;2022-08-20T08:56:58;96612.59;;;21.37;64.12
64758;BME280;51193;45.588;5.376;2022-08-20T08:59:29;96608.25;;;21.48;64.34
64758;BME280;51193;45.588;5.376;2022-08-20T09:01:58;96614.72;;;21.57;63.67
64758;BME280;51193;45.588;5.376;2022-08-20T09:04:35;96610.44;;;21.67;63.79
64758;BME280;51193;45.588;5.376;2022-08-20T09:07:03;96606.75;;;22.07;63.09
64758;BME280;51193;45.588;5.376;2022-08-20T09:09:35;96596.09;;;22.44;62.16
64758;BME280;51193;45.588;5.376;2022-08-20T09:12:08;96605.78;;;22.80;61.02
64758;BME280;51193;45.588;5.376;2022-08-20T09:14:35;96602.69;;;22.98;59.86
64758;BME280;51193;45.588;5.376;2022-08-20T09:17:00;96588.81;;;23.17;59.21
64758;BME280;51193;45.588;5.376;2022-08-20T09:19:26;96592.97;;;23.32;58.15
64758;BME280;51193;45.588;5.376;2022-08-20T09:21:51;96596.72;;;23.52;57.95
64758;BME280;51193;45.588;5.376;2022-08-20T09:24:17;96600.22;;;23.64;56.94
64758;BME280;51193;45.588;5.376;2022-08-20T09:26:42;96592.94;;;23.66;56.60
64758;BME280;51193;45.588;5.376;2022-08-20T09:29:08;96605.22;;;23.91;56.77
64758;BME280;51193;45.588;5.376;2022-08-20T09:31:34;96595.63;;;24.00;55.81
64758;BME280;51193;45.588;5.376;2022-08-20T09:34:00;96598.16;;;24.01;55.97
64758;BME280;51193;45.588;5.376;2022-08-20T09:36:25;96591.59;;;24.17;55.52
64758;BME280;51193;45.588;5.376;2022-08-20T09:38:52;96595.75;;;24.42;54.64
64758;BME280;51193;45.588;5.376;2022-08-20T09:41:17;96594.59;;;24.67;54.99
64758;BME280;51193;45.588;5.376;2022-08-20T09:43:43;96604.34;;;24.57;54.79
64758;BME280;51193;45.588;5.376;2022-08-20T09:46:08;96602.94;;;24.41;55.28
64758;BME280;51193;45.588;5.376;2022-08-20T09:48:33;96602.22;;;24.39;54.79
64758;BME280;51193;45.588;5.376;2022-08-20T09:50:59;96594.59;;;24.23;54.98
64758;BME280;51193;45.588;5.376;2022-08-20T09:53:25;96584.81;;;24.01;54.87
64758;BME280;51193;45.588;5.376;2022-08-20T09:55:52;96587.38;;;23.92;55.49
64758;BME280;51193;45.588;5.376;2022-08-20T09:58:34;96586.41;;;23.93;55.73
64758;BME280;51193;45.588;5.376;2022-08-20T10:01:06;96587.00;;;23.74;56.79
64758;BME280;51193;45.588;5.376;2022-08-20T10:03:32;96573.03;;;23.93;54.84
64758;BME280;51193;45.588;5.376;2022-08-20T10:05:57;96575.78;;;24.14;54.37
64758;BME280;51193;45.588;5.376;2022-08-20T10:08:24;96583.78;;;24.25;54.01
64758;BME280;51193;45.588;5.376;2022-08-20T10:10:49;96581.81;;;24.70;53.49
64758;BME280;51193;45.588;5.376;2022-08-20T10:13:15;96571.44;;;25.19;52.88
64758;BME280;51193;45.588;5.376;2022-08-20T10:15:40;96572.44;;;25.39;51.94
64758;BME280;51193;45.588;5.376;2022-08-20T10:18:06;96576.53;;;25.22;51.59
64758;BME280;51193;45.588;5.376;2022-08-20T10:20:32;96575.03;;;25.29;51.83
64758;BME280;51193;45.588;5.376;2022-08-20T10:22:58;96573.34;;;25.28;51.16
64758;BME280;51193;45.588;5.376;2022-08-20T10:25:23;96567.59;;;25.12;50.83
64758;BME280;51193;45.588;5.376;2022-08-20T10:27:49;96571.72;;;24.95;51.84
64758;BME280;51193;45.588;5.376;2022-08-20T10:30:14;96570.22;;;25.02;51.75
64758;BME280;51193;45.588;5.376;2022-08-20T10:32:40;96565.25;;;25.19;51.19
64758;BME280;51193;45.588;5.376;2022-08-20T10:35:06;96575.47;;;25.56;50.61
64758;BME280;51193;45.588;5.376;2022-08-20T10:37:34;96565.66;;;25.76;49.93
64758;BME280;51193;45.588;5.376;2022-08-20T10:40:01;96560.44;;;25.84;49.05
64758;BME280;51193;45.588;5.376;2022-08-20T10:42:27;96556.16;;;25.93;48.40
64758;BME280;51193;45.588;5.376;2022-08-20T10:44:52;96563.94;;;26.05;47.92
64758;BME280;51193;45.588;5.376;2022-08-20T10:47:21;96557.03;;;26.22;47.30
64758;BME280;51193;45.588;5.376;2022-08-20T10:49:50;96568.78;;;26.41;47.53
64758;BME280;51193;45.588;5.376;2022-08-20T10:52:16;96566.97;;;26.61;47.05
64758;BME280;51193;45.588;5.376;2022-08-20T10:54:41;96565.00;;;26.73;46.63
64758;BME280;51193;45.588;5.376;2022-08-20T10:57:11;96562.44;;;26.90;45.91
64758;BME280;51193;45.588;5.376;2022-08-20T10:59:42;96561.00;;;26.96;45.30
64758;BME280;51193;45.588;5.376;2022-08-20T11:02:08;96563.13;;;26.93;45.25
64758;BME280;51193;45.588;5.376;2022-08-20T11:04:34;96569.19;;;26.95;45.22
64758;BME280;51193;45.588;5.376;2022-08-20T11:09:37;96561.25;;;27.32;44.87
64758;BME280;51193;45.588;5.376;2022-08-20T11:12:03;96562.31;;;27.49;44.80
64758;BME280;51193;45.588;5.376;2022-08-20T11:14:29;96572.06;;;27.50;44.66
64758;BME280;51193;45.588;5.376;2022-08-20T11:16:55;96556.91;;;27.59;44.04
64758;BME280;51193;45.588;5.376;2022-08-20T11:19:20;96570.00;;;27.72;43.85
64758;BME280;51193;45.588;5.376;2022-08-20T11:21:46;96566.78;;;27.58;43.38
64758;BME280;51193;45.588;5.376;2022-08-20T11:24:11;96566.22;;;27.27;43.68
64758;BME280;51193;45.588;5.376;2022-08-20T11:26:37;96567.06;;;27.08;44.13
64758;BME280;51193;45.588;5.376;2022-08-20T11:29:02;96567.97;;;26.89;44.27
64758;BME280;51193;45.588;5.376;2022-08-20T11:31:28;96561.91;;;26.77;44.80
64758;BME280;51193;45.588;5.376;2022-08-20T11:33:53;96552.31;;;26.75;45.10
64758;BME280;51193;45.588;5.376;2022-08-20T11:36:19;96559.34;;;26.76;45.07
64758;BME280;51193;45.588;5.376;2022-08-20T11:38:44;96543.94;;;26.97;44.43
64758;BME280;51193;45.588;5.376;2022-08-20T11:41:10;96543.47;;;27.12;43.71
64758;BME280;51193;45.588;5.376;2022-08-20T11:43:35;96556.41;;;27.36;44.35
64758;BME280;51193;45.588;5.376;2022-08-20T11:46:01;96559.88;;;27.56;44.14
64758;BME280;51193;45.588;5.376;2022-08-20T11:48:26;96553.56;;;27.75;43.59
64758;BME280;51193;45.588;5.376;2022-08-20T11:50:51;96553.38;;;27.86;43.22
64758;BME280;51193;45.588;5.376;2022-08-20T11:53:17;96563.91;;;28.07;42.91
64758;BME280;51193;45.588;5.376;2022-08-20T11:55:42;96555.47;;;28.20;42.34
64758;BME280;51193;45.588;5.376;2022-08-20T11:58:09;96558.06;;;28.12;42.45
64758;BME280;51193;45.588;5.376;2022-08-20T12:00:35;96553.56;;;28.12;42.67
64758;BME280;51193;45.588;5.376;2022-08-20T12:03:04;96549.19;;;28.29;42.45
64758;BME280;51193;45.588;5.376;2022-08-20T12:05:31;96549.63;;;28.42;42.20
64758;BME280;51193;45.588;5.376;2022-08-20T12:07:59;96547.31;;;28.57;41.93
64758;BME280;51193;45.588;5.376;2022-08-20T12:10:25;96552.59;;;28.67;42.04
64758;BME280;51193;45.588;5.376;2022-08-20T12:12:52;96553.59;;;28.66;41.37
64758;BME280;51193;45.588;5.376;2022-08-20T12:15:18;96549.06;;;28.66;41.64
64758;BME280;51193;45.588;5.376;2022-08-20T12:17:44;96542.44;;;28.61;41.59
64758;BME280;51193;45.588;5.376;2022-08-20T12:20:11;96544.59;;;28.75;41.61
64758;BME280;51193;45.588;5.376;2022-08-20T12:22:37;96529.00;;;28.61;41.18
64758;BME280;51193;45.588;5.376;2022-08-20T12:25:04;96527.69;;;28.65;40.36
64758;BME280;51193;45.588;5.376;2022-08-20T12:27:31;96537.47;;;28.66;40.26
64758;BME280;51193;45.588;5.376;2022-08-20T12:30:00;96536.50;;;28.75;40.54
64758;BME280;51193;45.588;5.376;2022-08-20T12:32:27;96542.41;;;28.97;40.36
64758;BME280;51193;45.588;5.376;2022-08-20T12:34:54;96533.31;;;29.16;40.13
64758;BME280;51193;45.588;5.376;2022-08-20T12:37:26;96535.31;;;29.14;39.81
64758;BME280;51193;45.588;5.376;2022-08-20T12:39:55;96538.91;;;29.22;40.04
64758;BME280;51193;45.588;5.376;2022-08-20T12:42:21;96542.47;;;29.23;39.90
64758;BME280;51193;45.588;5.376;2022-08-20T12:44:46;96532.53;;;29.23;39.96
64758;BME280;51193;45.588;5.376;2022-08-20T12:47:21;96525.97;;;29.26;39.49
64758;BME280;51193;45.588;5.376;2022-08-20T12:49:51;96534.53;;;29.21;39.87
64758;BME280;51193;45.588;5.376;2022-08-20T12:52:18;96540.69;;;28.96;40.13
64758;BME280;51193;45.588;5.376;2022-08-20T12:54:44;96539.03;;;28.95;40.10
64758;BME280;51193;45.588;5.376;2022-08-20T12:57:26;96530.56;;;28.89;40.52
64758;BME280;51193;45.588;5.376;2022-08-20T12:59:54;96530.34;;;28.83;40.17
64758;BME280;51193;45.588;5.376;2022-08-20T13:02:20;96536.69;;;29.00;39.50
64758;BME280;51193;45.588;5.376;2022-08-20T13:04:45;96538.59;;;29.07;39.13
64758;BME280;51193;45.588;5.376;2022-08-20T13:07:11;96535.47;;;29.12;38.52
64758;BME280;51193;45.588;5.376;2022-08-20T13:09:38;96527.09;;;29.15;38.85